• Join FlightAware (Why Join?)
  • Login
  • US Flag 
05:40AM EST


 

Airport Tracker/Info


-or-


 

Live Flight TrackerFlight Track Log ✈ EJA122 ✈ 25-Jun-2013 ✈ KSTL - KFCM

Flight Track Log - Related Links

Times and Time Zones

All times are in EDT time to prevent confusion due to time zone crossing. See the EJA122 flight status page for this flight to view local times or setup timezone preferences in your user account.

Time Position Orientation Groundspeed Altitude Reporting Facility
EDT Latitude Longitude Course Direction KTS MPH feet Rate Location/Type
08:22AM 38.7333 -90.3000 99° East 194 223 2,100  Level Gateway (St. Louis) TRACON
08:23AM 38.7261 -90.2394 99° East 200 230 4,100 2,400 Climbing Kansas City Center
08:24AM 38.7700 -90.1922 40° Northeast 225 259 6,800 2,400 Climbing Kansas City Center
08:25AM 38.8333 -90.2056 351° North 232 267 9,100 1,920 Climbing Kansas City Center
08:26AM 38.9075 -90.2219 350° North 262 302 10,800 1,560 Climbing Kansas City Center
08:27AM 38.9928 -90.2411 350° North 303 349 12,300 1,440 Climbing Kansas City Center
08:28AM 39.0847 -90.2625 350° North 323 372 13,800 1,560 Climbing Kansas City Center
08:29AM 39.2014 -90.2881 350° North 343 395 15,600 1,620 Climbing Kansas City Center
08:30AM 39.3000 -90.3100 350° North 353 406 17,200 1,500 Climbing Kansas City Center
08:31AM 39.3975 -90.3322 350° North 356 410 18,700 1,440 Climbing Kansas City Center
08:32AM 39.4925 -90.3553 349° North 353 406 20,200 1,440 Climbing Kansas City Center
08:33AM 39.5897 -90.3772 350° North 354 407 21,700 1,320 Climbing Kansas City Center
08:34AM 39.6878 -90.3997 350° North 358 412 23,000 1,020 Climbing Kansas City Center
08:35AM 39.7853 -90.4467 340° North 367 422 23,900 1,140 Climbing Kansas City Center
08:36AM 39.8794 -90.5092 333° Northwest 377 434 25,400 1,620 Climbing Kansas City Center
08:37AM 39.9897 -90.5808 334° Northwest 371 427 27,300 1,620 Climbing Kansas City Center
08:38AM 40.0789 -90.6403 333° Northwest 363 418 28,800 1,260 Climbing Kansas City Center
08:39AM 40.1686 -90.6975 334° Northwest 358 412 30,000 1,080 Climbing Kansas City Center
08:40AM 40.2583 -90.7575 333° Northwest 359 413 31,100 1,020 Climbing Kansas City Center
08:41AM 40.3475 -90.8178 333° Northwest 359 413 32,200 1,020 Climbing Kansas City Center
08:42AM 40.4381 -90.8767 334° Northwest 360 414 33,300 840 Climbing Kansas City Center
08:43AM 40.5275 -90.9378 333° Northwest 361 415 34,000 300 Climbing Kansas City Center
08:44AM 40.6208 -91.0006 333° Northwest 368 423 34,000  Level Kansas City Center
08:45AM 40.7208 -91.0686 333° Northwest 387 445 34,000  Level Kansas City Center
08:46AM 40.8428 -91.1539 332° Northwest 405 466 34,000  Level Kansas City Center
08:47AM 40.9467 -91.2264 332° Northwest 414 476 34,000  Level Kansas City Center
08:48AM 41.0503 -91.2994 332° Northwest 419 482 34,000  Level Kansas City Center
08:50AM 41.1725 -91.3861 332° Northwest 415 478 34,000  Level Chicago Center
08:51AM 41.2819 -91.4653 331° Northwest 420 483 34,000  Level Chicago Center
08:52AM 41.3853 -91.5392 332° Northwest 424 488 34,000  Level Chicago Center
08:53AM 41.4903 -91.6147 332° Northwest 430 495 34,000  Level Chicago Center
08:54AM 41.5967 -91.6914 332° Northwest 436 502 34,000  Level Chicago Center
08:55AM 41.7244 -91.7839 332° Northwest 440 506 34,000  Level Chicago Center
08:56AM 41.8308 -91.8617 331° Northwest 438 504 34,000  Level Chicago Center
08:57AM 41.9369 -91.9400 331° Northwest 438 504 34,000  Level Chicago Center
08:58AM 42.0417 -92.0147 332° Northwest 430 495 34,000  Level Chicago Center
08:59AM 42.1467 -92.0911 332° Northwest 429 494 34,000  Level Chicago Center
09:00AM 42.2511 -92.1697 331° Northwest 431 496 34,000  Level Chicago Center
09:01AM 42.3778 -92.2642 331° Northwest 433 498 34,000  Level Chicago Center
09:02AM 42.4822 -92.3411 331° Northwest 430 495 34,000  Level Chicago Center
09:03AM 42.5772 -92.4358 324° Northwest 424 488 34,000  Level Chicago Center
09:04AM 42.6561 -92.5544 312° West 422 486 34,000  Level Chicago Center
09:05AM 42.7025 -92.6281 311° West 426 490 34,000  Level Minneapolis Center
09:06AM 42.7797 -92.7494 311° West 427 491 34,000 -180 Level Minneapolis Center
09:07AM 42.8567 -92.8722 311° West 428 493 33,700 -900 Descending Minneapolis Center
09:08AM 42.9347 -92.9936 311° West 428 493 32,200 -1,560 Descending Minneapolis Center
09:09AM 43.0272 -93.1417 311° West 430 495 30,600 -1,620 Descending Minneapolis Center
09:10AM 43.1047 -93.2661 310° West 432 497 28,900 -1,560 Descending Minneapolis Center
09:11AM 43.1811 -93.3908 310° West 431 496 27,400 -1,500 Descending Minneapolis Center
09:12AM 43.2719 -93.4911 321° Northwest 428 493 25,900 -1,560 Descending Minneapolis Center
09:13AM 43.3886 -93.5314 346° North 436 502 24,300 -1,620 Descending Minneapolis Center
09:14AM 43.5119 -93.5206 North 442 509 22,600 -2,220 Descending Minneapolis Center
09:15AM 43.6425 -93.5089 North 431 496 19,800 -2,640 Descending Minneapolis Center
09:16AM 43.7519 -93.5019 North 408 470 17,200 -2,340 Descending Minneapolis Center
09:17AM 43.8333 -93.4939 North 384 442 15,100 -2,760 Descending Minneapolis Center
09:18AM 43.9636 -93.4847 North 341 392 11,600 -2,880 Descending Minneapolis Center
09:19AM 44.0442 -93.4756 North 301 346 9,200 -1,800 Descending Minneapolis Center
09:20AM 44.1236 -93.4722 North 282 325 8,000 -600 Descending Minneapolis Center
09:21AM 44.2000 -93.4653 North 276 318 8,000  Level Minneapolis Center
09:22AM 44.2767 -93.4622 North 276 318 8,000 -300 Level Minneapolis Center
09:23AM 44.3486 -93.4814 349° North 258 297 7,500 -840 Descending Minneapolis Center
09:24AM 44.4078 -93.5011 347° North 219 252 6,300 -1,260 Descending Minneapolis Center
09:25AM 44.4672 -93.5206 347° North 218 251 5,000 -660 Descending Minneapolis Center
09:26AM 44.5403 -93.5411 349° North 223 257 5,000 -540 Level Minneapolis Center
09:27AM 44.6011 -93.5636 345° North 225 259 3,900 -960 Descending Minneapolis Center
09:28AM 44.6497 -93.5850 343° North 228 262 3,100 -480 Descending Minneapolis Center
09:29AM 44.7081 -93.6075 345° North 218 251 3,000 -60 Descending Minneapolis Center
09:30AM 44.7797 -93.6128 357° North 219 252 3,000 -300 Level Minneapolis Center
09:31AM 44.8275 -93.5897 19° North 189 217 2,500 -480 Descending Minneapolis Center
09:33AM 44.8389 -93.5378 73° East 144 166 2,000 -660 Descending Minneapolis Center
09:34AM 44.8303 -93.4800 102° East 125 144 1,100 -900 Descending Minneapolis Center